Airfield :
LOGIN :

Register | Disclaimer

   EN    FR    IT 

 










Legend :    VFR   Marginal VFR   IFR   Intensive IFR   Very Intensive IFR
Visi :
Ceiling :
>= 8 km
>= 3000ft
5 to 8 km
1000 to 3000 ft
1500m to 5 km
500 to 1000 ft
800 to 1500m
200 to 500 ft
< 800m
< 200 ft
Symbols :   Thunderstorms  Fog  Heavy snow  Heavy precipitations  Wind > 20 kt
SIGMETs :     Misc.  Thunderstorms  Icing  Turbulence  Mountain Waves  Volcanic Ashes






- Airport Elevation : 63 ft
- IATA code : BZM


EHWO - Woensdrecht Airbase

CURRENT METAR :
  • 041225Z AUTO 22013KT 170V260 9999 FEW012 OVC015 18/15 Q1013 WHT

EXPIRED METARs :
  • 041200Z AUTO 22012KT 180V260 9999 FEW008 OVC015 18/15 Q1013 WHT
  • 041155Z AUTO 22012G22KT 190V260 9999 FEW008 SCT014 OVC017 17/15 Q1013 GRN
  • 041125Z AUTO 22014KT 180V260 9999 BKN012 OVC015 17/15 Q1014 GRN
  • 041059Z AUTO 21014KT 180V250 9999 BKN013 OVC015 17/15 Q1013 GRN
  • 041025Z AUTO 22012KT 190V250 9999 FEW011 BKN013 OVC016 16/15 Q1014 GRN
  • 040955Z AUTO 22011KT 180V250 9999 FEW012 BKN014 OVC017 16/14 Q1014 GRN
  • 040946Z AUTO 22014KT 190V260 9999 SCT012 BKN014 OVC017 16/14 Q1014 GRN

Expired Forecast.



MET'MAP, your aeronautical weather chart ! - Copyright ORBIFLY December 2007 - Disclaimer

ORBIFLY MET'MAP TEAM :

Programming & Development : Alexandra Zaïnal
Concept & original design : Baudouin d'Aumeries
Assistance for programming : Marc-Olivier Méhu
Technical & hardware support : Manuel Goepfert

Contact : metmap@orbifly.com




SOURCES & CREDITS :

   NOAA